JES3101 SACO-SABE
Flight info
| Callsign | JES3101 |
|---|---|
| Flight time | N/A |
| Altitude | 37000 |
| Route | UTRAX1C UTRAX UW24 SNT SNT9R |
| Aircraft | A320/M-SDE3FGHIRWY/LB1 |
Departure
| Time | 2026-05-09 04:58 |
|---|---|
| Airport | Ingeniero Aeronáutico Ambrosio L.V. Taravella International Airport (SACO) |
Arrival
| Time | N/A |
|---|---|
| Airport | Aeroparque Jorge Newbery (SABE) |
| Time | Latitude | Longitude | Altitude | Speed | Heading |
|---|---|---|---|---|---|
| 2026-05-09 04:43 | -31.31553 | -64.21172 | 1615 ft | 0 kts | 259° |
| 2026-05-09 04:51 | -31.31547 | -64.21145 | 1621 ft | 4 kts | 255° |
| 2026-05-09 04:51 | -31.31542 | -64.21119 | 1619 ft | 3 kts | 261° |
| 2026-05-09 04:51 | -31.31539 | -64.21104 | 1618 ft | 2 kts | 243° |
| 2026-05-09 04:51 | -31.31533 | -64.21091 | 1618 ft | 2 kts | 217° |
| 2026-05-09 04:52 | -31.31524 | -64.21084 | 1618 ft | 2 kts | 197° |
| 2026-05-09 04:52 | -31.31513 | -64.21081 | 1618 ft | 2 kts | 182° |
| 2026-05-09 04:52 | -31.31509 | -64.21081 | 1616 ft | 0 kts | 180° |
| 2026-05-09 04:55 | -31.31522 | -64.21081 | 1616 ft | 4 kts | 180° |
| 2026-05-09 04:55 | -31.31572 | -64.21100 | 1616 ft | 11 kts | 196° |
| 2026-05-09 04:55 | -31.31672 | -64.21101 | 1613 ft | 17 kts | 180° |
| 2026-05-09 04:56 | -31.31778 | -64.21041 | 1619 ft | 18 kts | 144° |
| 2026-05-09 04:56 | -31.31905 | -64.21028 | 1620 ft | 19 kts | 179° |
| 2026-05-09 04:56 | -31.32045 | -64.21026 | 1617 ft | 21 kts | 180° |
| 2026-05-09 04:56 | -31.32196 | -64.21023 | 1617 ft | 22 kts | 179° |
| 2026-05-09 04:57 | -31.32333 | -64.21020 | 1617 ft | 18 kts | 179° |
| 2026-05-09 04:57 | -31.32424 | -64.20982 | 1619 ft | 13 kts | 135° |
| 2026-05-09 04:57 | -31.32430 | -64.20882 | 1621 ft | 14 kts | 59° |
| 2026-05-09 04:57 | -31.32342 | -64.20816 | 1618 ft | 19 kts | 3° |
| 2026-05-09 04:58 | -31.32049 | -64.20821 | 1620 ft | 73 kts | 359° |
| 2026-05-09 04:58 | -31.31355 | -64.20830 | 1620 ft | 124 kts | 359° |
| 2026-05-09 04:58 | -31.30365 | -64.20845 | 1753 ft | 152 kts | 358° |
| 2026-05-09 04:58 | -31.29291 | -64.20873 | 2246 ft | 158 kts | 355° |
| 2026-05-09 04:59 | -31.28168 | -64.20877 | 2774 ft | 167 kts | 5° |
| 2026-05-09 04:59 | -31.27055 | -64.20395 | 3288 ft | 174 kts | 30° |
| 2026-05-09 04:59 | -31.26180 | -64.19403 | 3839 ft | 178 kts | 56° |
| 2026-05-09 04:59 | -31.25539 | -64.18190 | 4361 ft | 178 kts | 58° |
| 2026-05-09 05:00 | -31.24887 | -64.16954 | 4867 ft | 179 kts | 59° |
| 2026-05-09 05:00 | -31.24348 | -64.15644 | 5335 ft | 178 kts | 79° |
| 2026-05-09 05:00 | -31.24193 | -64.14226 | 5792 ft | 175 kts | 97° |
| 2026-05-09 05:00 | -31.24178 | -64.12795 | 6270 ft | 177 kts | 97° |
| 2026-05-09 05:01 | -31.24333 | -64.11382 | 6613 ft | 180 kts | 117° |
| 2026-05-09 05:01 | -31.24910 | -64.10031 | 6790 ft | 194 kts | 130° |
| 2026-05-09 05:01 | -31.25655 | -64.08607 | 6972 ft | 217 kts | 129° |
| 2026-05-09 05:01 | -31.26478 | -64.07009 | 7169 ft | 241 kts | 128° |
| 2026-05-09 05:02 | -31.27348 | -64.05292 | 7797 ft | 248 kts | 127° |
| 2026-05-09 05:02 | -31.28384 | -64.03666 | 8353 ft | 255 kts | 142° |
| 2026-05-09 05:02 | -31.29714 | -64.02161 | 8676 ft | 277 kts | 143° |
| 2026-05-09 05:02 | -31.31144 | -64.00573 | 9297 ft | 287 kts | 143° |
| 2026-05-09 05:03 | -31.32587 | -63.98936 | 10085 ft | 292 kts | 141° |
| 2026-05-09 05:03 | -31.34025 | -63.97165 | 10456 ft | 312 kts | 139° |
| 2026-05-09 05:03 | -31.35537 | -63.95211 | 10735 ft | 332 kts | 138° |
| 2026-05-09 05:03 | -31.37080 | -63.93158 | 11339 ft | 339 kts | 137° |
| 2026-05-09 05:04 | -31.38634 | -63.91069 | 12024 ft | 342 kts | 137° |
| 2026-05-09 05:04 | -31.40204 | -63.88960 | 12725 ft | 345 kts | 138° |
| 2026-05-09 05:04 | -31.41789 | -63.86839 | 13445 ft | 348 kts | 139° |
| 2026-05-09 05:04 | -31.43396 | -63.84705 | 14121 ft | 351 kts | 139° |
| 2026-05-09 05:05 | -31.44999 | -63.82586 | 14698 ft | 354 kts | 139° |
| 2026-05-09 05:05 | -31.46642 | -63.80420 | 15267 ft | 357 kts | 139° |
| 2026-05-09 05:05 | -31.48306 | -63.78230 | 15824 ft | 361 kts | 139° |
| 2026-05-09 05:05 | -31.49985 | -63.76016 | 16386 ft | 365 kts | 139° |
| 2026-05-09 05:06 | -31.51680 | -63.73781 | 16937 ft | 369 kts | 140° |
| 2026-05-09 05:06 | -31.53395 | -63.71521 | 17465 ft | 373 kts | 140° |
| 2026-05-09 05:06 | -31.55131 | -63.69233 | 18021 ft | 377 kts | 140° |
| 2026-05-09 05:06 | -31.56880 | -63.66924 | 18573 ft | 380 kts | 140° |
| 2026-05-09 05:07 | -31.58643 | -63.64591 | 19037 ft | 385 kts | 139° |
| 2026-05-09 05:07 | -31.60429 | -63.62226 | 19519 ft | 390 kts | 140° |
| 2026-05-09 05:07 | -31.62236 | -63.59835 | 19990 ft | 394 kts | 140° |
| 2026-05-09 05:07 | -31.64062 | -63.57419 | 20458 ft | 398 kts | 140° |
| 2026-05-09 05:08 | -31.65891 | -63.54998 | 20901 ft | 402 kts | 139° |
| 2026-05-09 05:08 | -31.67754 | -63.52522 | 21336 ft | 407 kts | 139° |
| 2026-05-09 05:08 | -31.69633 | -63.50018 | 21770 ft | 411 kts | 139° |
| 2026-05-09 05:08 | -31.71517 | -63.47400 | 22187 ft | 417 kts | 136° |
| 2026-05-09 05:09 | -31.73305 | -63.44748 | 22602 ft | 422 kts | 134° |
| 2026-05-09 05:09 | -31.75084 | -63.41973 | 23002 ft | 428 kts | 133° |
| 2026-05-09 05:09 | -31.76846 | -63.39118 | 23385 ft | 434 kts | 132° |
| 2026-05-09 05:09 | -31.78602 | -63.36203 | 23774 ft | 439 kts | 131° |
| 2026-05-09 05:10 | -31.80367 | -63.33246 | 24137 ft | 442 kts | 131° |
| 2026-05-09 05:10 | -31.82142 | -63.30283 | 24530 ft | 444 kts | 132° |
| 2026-05-09 05:10 | -31.83938 | -63.27304 | 24948 ft | 445 kts | 132° |
| 2026-05-09 05:10 | -31.85736 | -63.24335 | 25362 ft | 446 kts | 132° |
| 2026-05-09 05:11 | -31.87544 | -63.21365 | 25782 ft | 447 kts | 132° |
| 2026-05-09 05:11 | -31.89360 | -63.18388 | 26199 ft | 448 kts | 132° |
| 2026-05-09 05:11 | -31.91179 | -63.15404 | 26609 ft | 449 kts | 132° |
| 2026-05-09 05:11 | -31.93003 | -63.12409 | 27024 ft | 451 kts | 132° |
| 2026-05-09 05:12 | -31.94814 | -63.09435 | 27344 ft | 454 kts | 132° |
| 2026-05-09 05:12 | -31.96659 | -63.06404 | 27738 ft | 456 kts | 132° |
| 2026-05-09 05:12 | -31.98498 | -63.03373 | 28264 ft | 454 kts | 131° |
| 2026-05-09 05:12 | -32.00332 | -63.00343 | 28731 ft | 454 kts | 131° |
| 2026-05-09 05:13 | -32.02165 | -62.97309 | 29151 ft | 455 kts | 131° |
| 2026-05-09 05:13 | -32.03999 | -62.94272 | 29552 ft | 456 kts | 131° |
| 2026-05-09 05:13 | -32.05845 | -62.91214 | 29941 ft | 458 kts | 131° |
| 2026-05-09 05:13 | -32.07696 | -62.88147 | 30289 ft | 459 kts | 131° |
| 2026-05-09 05:14 | -32.09552 | -62.85075 | 30576 ft | 461 kts | 131° |
| 2026-05-09 05:14 | -32.11416 | -62.81989 | 30882 ft | 463 kts | 131° |
| 2026-05-09 05:14 | -32.13288 | -62.78881 | 31163 ft | 465 kts | 130° |
| 2026-05-09 05:14 | -32.15151 | -62.75786 | 31504 ft | 466 kts | 130° |
| 2026-05-09 05:15 | -32.17022 | -62.72677 | 31967 ft | 463 kts | 130° |
| 2026-05-09 05:15 | -32.18887 | -62.69573 | 32368 ft | 463 kts | 130° |
| 2026-05-09 05:15 | -32.20748 | -62.66470 | 32718 ft | 463 kts | 129° |
| 2026-05-09 05:15 | -32.22608 | -62.63361 | 33081 ft | 463 kts | 129° |
| 2026-05-09 05:16 | -32.24471 | -62.60250 | 33449 ft | 464 kts | 129° |
| 2026-05-09 05:16 | -32.26336 | -62.57140 | 33813 ft | 464 kts | 129° |
| 2026-05-09 05:16 | -32.28212 | -62.54017 | 34170 ft | 465 kts | 129° |
| 2026-05-09 05:16 | -32.30086 | -62.50894 | 34413 ft | 466 kts | 129° |
| 2026-05-09 05:17 | -32.31952 | -62.47779 | 34609 ft | 470 kts | 129° |
| 2026-05-09 05:17 | -32.33829 | -62.44630 | 34952 ft | 468 kts | 129° |
| 2026-05-09 05:17 | -32.35695 | -62.41489 | 35293 ft | 466 kts | 129° |
| 2026-05-09 05:17 | -32.37561 | -62.38355 | 35572 ft | 466 kts | 129° |
| 2026-05-09 05:18 | -32.39429 | -62.35221 | 35764 ft | 468 kts | 129° |
| 2026-05-09 05:18 | -32.41286 | -62.32107 | 35886 ft | 471 kts | 129° |
| 2026-05-09 05:18 | -32.43184 | -62.28922 | 36001 ft | 475 kts | 129° |
| 2026-05-09 05:18 | -32.45099 | -62.25702 | 36118 ft | 479 kts | 129° |
| 2026-05-09 05:19 | -32.47016 | -62.22465 | 36239 ft | 482 kts | 129° |
| 2026-05-09 05:19 | -32.48925 | -62.19244 | 36357 ft | 486 kts | 128° |
| 2026-05-09 05:19 | -32.50872 | -62.15955 | 36492 ft | 489 kts | 128° |
| 2026-05-09 05:19 | -32.52829 | -62.12647 | 36615 ft | 492 kts | 128° |
| 2026-05-09 05:20 | -32.54798 | -62.09317 | 36736 ft | 495 kts | 128° |
| 2026-05-09 05:20 | -32.56778 | -62.05967 | 36861 ft | 498 kts | 128° |
| 2026-05-09 05:20 | -32.58767 | -62.02597 | 37008 ft | 499 kts | 128° |
| 2026-05-09 05:21 | -32.62769 | -61.95818 | 37108 ft | 502 kts | 128° |
| 2026-05-09 05:21 | -32.66758 | -61.89034 | 37109 ft | 504 kts | 128° |
| 2026-05-09 05:22 | -32.70765 | -61.82207 | 37099 ft | 503 kts | 128° |
| 2026-05-09 05:22 | -32.74770 | -61.75381 | 37101 ft | 502 kts | 128° |
| 2026-05-09 05:23 | -32.78765 | -61.68569 | 37090 ft | 502 kts | 128° |
| 2026-05-09 05:23 | -32.82721 | -61.61788 | 37087 ft | 502 kts | 128° |
| 2026-05-09 05:24 | -32.86701 | -61.54962 | 37107 ft | 501 kts | 127° |
| 2026-05-09 05:24 | -32.90667 | -61.48160 | 37104 ft | 499 kts | 127° |
| 2026-05-09 05:25 | -32.94617 | -61.41366 | 37093 ft | 498 kts | 127° |
| 2026-05-09 05:25 | -33.00493 | -61.31206 | 37073 ft | 498 kts | 127° |
| 2026-05-09 05:26 | -33.04429 | -61.24401 | 37052 ft | 499 kts | 127° |
| 2026-05-09 05:26 | -33.08362 | -61.17603 | 37047 ft | 500 kts | 127° |
| 2026-05-09 05:27 | -33.12309 | -61.10755 | 37045 ft | 501 kts | 127° |
| 2026-05-09 05:27 | -33.16258 | -61.03901 | 37056 ft | 501 kts | 126° |
| 2026-05-09 05:28 | -33.20208 | -60.97028 | 37055 ft | 501 kts | 126° |
| 2026-05-09 05:28 | -33.24117 | -60.90197 | 37050 ft | 501 kts | 126° |
| 2026-05-09 05:29 | -33.28037 | -60.83324 | 37045 ft | 501 kts | 126° |
| 2026-05-09 05:29 | -33.31962 | -60.76451 | 37043 ft | 501 kts | 126° |
| 2026-05-09 05:30 | -33.35889 | -60.69570 | 37035 ft | 501 kts | 126° |
| 2026-05-09 05:30 | -33.39783 | -60.62722 | 37026 ft | 501 kts | 126° |
| 2026-05-09 05:31 | -33.43694 | -60.55829 | 37022 ft | 501 kts | 126° |
| 2026-05-09 05:31 | -33.47611 | -60.48923 | 37019 ft | 501 kts | 126° |
| 2026-05-09 05:32 | -33.51524 | -60.42010 | 36751 ft | 498 kts | 125° |
| 2026-05-09 05:32 | -33.53452 | -60.38599 | 36418 ft | 490 kts | 125° |
| 2026-05-09 05:32 | -33.55319 | -60.35286 | 36177 ft | 482 kts | 125° |
| 2026-05-09 05:33 | -33.57179 | -60.31982 | 35932 ft | 474 kts | 125° |
| 2026-05-09 05:33 | -33.59013 | -60.28724 | 35682 ft | 469 kts | 125° |
| 2026-05-09 05:33 | -33.60830 | -60.25496 | 35446 ft | 466 kts | 125° |
| 2026-05-09 05:33 | -33.62640 | -60.22279 | 35206 ft | 463 kts | 125° |